sensor_id;sensor_type;location;lat;lon;timestamp;P1;durP1;ratioP1;P2;durP2;ratioP2
36303;SDS011;22335;49.800;8.596;2024-03-06T00:02:53;21.88;;;20.17;;
36303;SDS011;22335;49.800;8.596;2024-03-06T00:09:37;22.02;;;20.33;;
36303;SDS011;22335;49.800;8.596;2024-03-06T00:16:25;21.35;;;19.85;;
36303;SDS011;22335;49.800;8.596;2024-03-06T00:23:09;22.05;;;20.20;;
36303;SDS011;22335;49.800;8.596;2024-03-06T00:29:52;22.92;;;21.17;;
36303;SDS011;22335;49.800;8.596;2024-03-06T00:36:37;22.02;;;20.35;;
36303;SDS011;22335;49.800;8.596;2024-03-06T00:43:21;22.95;;;21.35;;
36303;SDS011;22335;49.800;8.596;2024-03-06T00:50:05;22.63;;;20.73;;
36303;SDS011;22335;49.800;8.596;2024-03-06T00:56:50;22.67;;;20.83;;
36303;SDS011;22335;49.800;8.596;2024-03-06T01:03:34;21.95;;;20.23;;
36303;SDS011;22335;49.800;8.596;2024-03-06T01:10:17;20.63;;;19.13;;
36303;SDS011;22335;49.800;8.596;2024-03-06T01:17:02;21.63;;;20.02;;
36303;SDS011;22335;49.800;8.596;2024-03-06T01:23:46;20.05;;;18.63;;
36303;SDS011;22335;49.800;8.596;2024-03-06T01:30:30;20.95;;;19.55;;
36303;SDS011;22335;49.800;8.596;2024-03-06T01:37:15;21.50;;;19.90;;
36303;SDS011;22335;49.800;8.596;2024-03-06T01:43:58;22.08;;;20.58;;
36303;SDS011;22335;49.800;8.596;2024-03-06T01:50:42;20.80;;;19.38;;
36303;SDS011;22335;49.800;8.596;2024-03-06T01:57:26;21.38;;;19.88;;
36303;SDS011;22335;49.800;8.596;2024-03-06T02:04:11;21.92;;;20.30;;
36303;SDS011;22335;49.800;8.596;2024-03-06T02:10:55;22.88;;;21.05;;
36303;SDS011;22335;49.800;8.596;2024-03-06T02:17:41;21.42;;;19.77;;
36303;SDS011;22335;49.800;8.596;2024-03-06T02:24:26;22.70;;;21.10;;
36303;SDS011;22335;49.800;8.596;2024-03-06T02:31:10;22.98;;;21.17;;
36303;SDS011;22335;49.800;8.596;2024-03-06T02:37:53;23.05;;;21.35;;
36303;SDS011;22335;49.800;8.596;2024-03-06T02:44:39;22.52;;;20.92;;
36303;SDS011;22335;49.800;8.596;2024-03-06T02:51:22;22.42;;;20.70;;
36303;SDS011;22335;49.800;8.596;2024-03-06T02:58:06;22.40;;;20.70;;
36303;SDS011;22335;49.800;8.596;2024-03-06T03:04:51;21.92;;;20.33;;
36303;SDS011;22335;49.800;8.596;2024-03-06T03:11:34;21.60;;;20.00;;
36303;SDS011;22335;49.800;8.596;2024-03-06T03:18:18;21.15;;;19.58;;
36303;SDS011;22335;49.800;8.596;2024-03-06T03:25:03;22.90;;;21.15;;
36303;SDS011;22335;49.800;8.596;2024-03-06T03:31:49;21.55;;;20.02;;
36303;SDS011;22335;49.800;8.596;2024-03-06T03:38:32;21.80;;;20.30;;
36303;SDS011;22335;49.800;8.596;2024-03-06T04:00:23;22.35;;;20.65;;
36303;SDS011;22335;49.800;8.596;2024-03-06T04:07:06;23.17;;;21.55;;
36303;SDS011;22335;49.800;8.596;2024-03-06T04:13:49;23.30;;;21.50;;
36303;SDS011;22335;49.800;8.596;2024-03-06T04:20:34;28.08;;;25.55;;
36303;SDS011;22335;49.800;8.596;2024-03-06T04:27:18;27.42;;;24.90;;
36303;SDS011;22335;49.800;8.596;2024-03-06T04:34:01;25.60;;;23.42;;
36303;SDS011;22335;49.800;8.596;2024-03-06T04:40:46;24.95;;;23.10;;
36303;SDS011;22335;49.800;8.596;2024-03-06T04:47:29;24.85;;;23.00;;
36303;SDS011;22335;49.800;8.596;2024-03-06T04:54:13;23.10;;;21.30;;
36303;SDS011;22335;49.800;8.596;2024-03-06T05:00:58;23.52;;;22.00;;
36303;SDS011;22335;49.800;8.596;2024-03-06T05:07:41;25.70;;;23.90;;
36303;SDS011;22335;49.800;8.596;2024-03-06T05:14:42;24.85;;;23.05;;
36303;SDS011;22335;49.800;8.596;2024-03-06T05:21:45;24.25;;;22.50;;
36303;SDS011;22335;49.800;8.596;2024-03-06T05:28:46;24.98;;;23.10;;
36303;SDS011;22335;49.800;8.596;2024-03-06T05:35:47;24.45;;;22.60;;
36303;SDS011;22335;49.800;8.596;2024-03-06T05:42:49;24.85;;;22.70;;
36303;SDS011;22335;49.800;8.596;2024-03-06T05:49:51;25.55;;;23.70;;
36303;SDS011;22335;49.800;8.596;2024-03-06T05:56:53;24.92;;;23.17;;
36303;SDS011;22335;49.800;8.596;2024-03-06T06:10:38;25.17;;;23.38;;
36303;SDS011;22335;49.800;8.596;2024-03-06T06:17:22;24.83;;;22.92;;
36303;SDS011;22335;49.800;8.596;2024-03-06T06:24:08;23.83;;;21.92;;
36303;SDS011;22335;49.800;8.596;2024-03-06T06:30:51;24.73;;;22.83;;
36303;SDS011;22335;49.800;8.596;2024-03-06T06:37:35;24.58;;;22.70;;
36303;SDS011;22335;49.800;8.596;2024-03-06T06:44:20;23.67;;;21.88;;
36303;SDS011;22335;49.800;8.596;2024-03-06T06:51:03;23.75;;;22.00;;
36303;SDS011;22335;49.800;8.596;2024-03-06T06:57:47;23.75;;;22.05;;
36303;SDS011;22335;49.800;8.596;2024-03-06T07:04:31;24.13;;;22.23;;
36303;SDS011;22335;49.800;8.596;2024-03-06T07:11:16;25.50;;;23.50;;
36303;SDS011;22335;49.800;8.596;2024-03-06T07:18:00;24.05;;;22.08;;
36303;SDS011;22335;49.800;8.596;2024-03-06T07:24:45;24.60;;;22.73;;
36303;SDS011;22335;49.800;8.596;2024-03-06T07:31:29;25.60;;;23.55;;
36303;SDS011;22335;49.800;8.596;2024-03-06T07:38:13;25.77;;;23.67;;
36303;SDS011;22335;49.800;8.596;2024-03-06T07:44:58;25.52;;;23.52;;
36303;SDS011;22335;49.800;8.596;2024-03-06T07:51:41;25.20;;;23.10;;
36303;SDS011;22335;49.800;8.596;2024-03-06T07:58:25;25.63;;;23.52;;
36303;SDS011;22335;49.800;8.596;2024-03-06T08:05:11;24.55;;;22.35;;
36303;SDS011;22335;49.800;8.596;2024-03-06T08:11:55;21.30;;;19.80;;
36303;SDS011;22335;49.800;8.596;2024-03-06T08:18:38;22.88;;;20.95;;
36303;SDS011;22335;49.800;8.596;2024-03-06T08:25:23;20.63;;;19.23;;
36303;SDS011;22335;49.800;8.596;2024-03-06T08:32:07;20.40;;;19.00;;
36303;SDS011;22335;49.800;8.596;2024-03-06T08:38:51;21.80;;;20.17;;
36303;SDS011;22335;49.800;8.596;2024-03-06T08:45:35;22.27;;;20.67;;
36303;SDS011;22335;49.800;8.596;2024-03-06T08:52:19;21.25;;;19.73;;
36303;SDS011;22335;49.800;8.596;2024-03-06T08:59:03;22.38;;;20.83;;
36303;SDS011;22335;49.800;8.596;2024-03-06T09:05:48;24.10;;;22.10;;
36303;SDS011;22335;49.800;8.596;2024-03-06T09:12:31;24.00;;;22.05;;
36303;SDS011;22335;49.800;8.596;2024-03-06T09:19:17;27.08;;;24.58;;
36303;SDS011;22335;49.800;8.596;2024-03-06T09:26:02;27.92;;;25.42;;
36303;SDS011;22335;49.800;8.596;2024-03-06T09:32:47;29.38;;;26.60;;
36303;SDS011;22335;49.800;8.596;2024-03-06T09:39:30;30.40;;;27.35;;
36303;SDS011;22335;49.800;8.596;2024-03-06T09:46:16;31.63;;;28.70;;
36303;SDS011;22335;49.800;8.596;2024-03-06T09:53:01;31.35;;;28.25;;
36303;SDS011;22335;49.800;8.596;2024-03-06T09:59:46;29.20;;;26.30;;
36303;SDS011;22335;49.800;8.596;2024-03-06T10:06:30;30.40;;;27.50;;
36303;SDS011;22335;49.800;8.596;2024-03-06T10:13:15;29.92;;;27.05;;
36303;SDS011;22335;49.800;8.596;2024-03-06T10:19:59;29.98;;;26.92;;
36303;SDS011;22335;49.800;8.596;2024-03-06T10:26:47;29.02;;;26.33;;
36303;SDS011;22335;49.800;8.596;2024-03-06T10:33:31;30.70;;;27.52;;
36303;SDS011;22335;49.800;8.596;2024-03-06T10:40:15;29.33;;;26.40;;
36303;SDS011;22335;49.800;8.596;2024-03-06T10:47:02;28.73;;;25.88;;
36303;SDS011;22335;49.800;8.596;2024-03-06T10:53:48;27.90;;;25.15;;
36303;SDS011;22335;49.800;8.596;2024-03-06T11:00:33;28.50;;;25.80;;
36303;SDS011;22335;49.800;8.596;2024-03-06T11:07:20;29.27;;;26.33;;
36303;SDS011;22335;49.800;8.596;2024-03-06T11:14:04;30.13;;;27.23;;
36303;SDS011;22335;49.800;8.596;2024-03-06T11:20:49;29.92;;;26.92;;
36303;SDS011;22335;49.800;8.596;2024-03-06T11:27:36;30.70;;;27.73;;
36303;SDS011;22335;49.800;8.596;2024-03-06T11:34:46;30.50;;;27.50;;
36303;SDS011;22335;49.800;8.596;2024-03-06T11:41:31;29.58;;;26.58;;
36303;SDS011;22335;49.800;8.596;2024-03-06T11:48:31;29.00;;;26.25;;
36303;SDS011;22335;49.800;8.596;2024-03-06T11:55:14;30.20;;;26.83;;
36303;SDS011;22335;49.800;8.596;2024-03-06T12:01:58;30.27;;;27.30;;
36303;SDS011;22335;49.800;8.596;2024-03-06T12:08:45;29.63;;;26.63;;
36303;SDS011;22335;49.800;8.596;2024-03-06T12:15:28;28.50;;;25.70;;
36303;SDS011;22335;49.800;8.596;2024-03-06T12:22:12;27.35;;;24.65;;
36303;SDS011;22335;49.800;8.596;2024-03-06T12:29:04;26.00;;;23.58;;
36303;SDS011;22335;49.800;8.596;2024-03-06T12:35:58;26.63;;;24.13;;
36303;SDS011;22335;49.800;8.596;2024-03-06T12:42:46;25.13;;;22.85;;
36303;SDS011;22335;49.800;8.596;2024-03-06T12:49:32;26.17;;;23.60;;
36303;SDS011;22335;49.800;8.596;2024-03-06T12:56:15;27.85;;;25.25;;
36303;SDS011;22335;49.800;8.596;2024-03-06T13:02:59;25.67;;;23.38;;
36303;SDS011;22335;49.800;8.596;2024-03-06T13:09:43;27.58;;;24.95;;
36303;SDS011;22335;49.800;8.596;2024-03-06T13:16:27;26.98;;;24.45;;
36303;SDS011;22335;49.800;8.596;2024-03-06T13:23:11;28.20;;;25.45;;
36303;SDS011;22335;49.800;8.596;2024-03-06T13:29:56;28.52;;;25.80;;
36303;SDS011;22335;49.800;8.596;2024-03-06T13:36:40;27.15;;;24.55;;
36303;SDS011;22335;49.800;8.596;2024-03-06T13:43:24;30.00;;;27.10;;
36303;SDS011;22335;49.800;8.596;2024-03-06T13:50:10;31.65;;;28.38;;
36303;SDS011;22335;49.800;8.596;2024-03-06T13:56:55;30.40;;;27.10;;
36303;SDS011;22335;49.800;8.596;2024-03-06T14:03:42;32.08;;;28.67;;
36303;SDS011;22335;49.800;8.596;2024-03-06T14:10:27;29.98;;;26.98;;
36303;SDS011;22335;49.800;8.596;2024-03-06T14:17:14;33.13;;;29.33;;
36303;SDS011;22335;49.800;8.596;2024-03-06T14:23:58;32.78;;;29.23;;
36303;SDS011;22335;49.800;8.596;2024-03-06T14:30:46;30.90;;;27.60;;
36303;SDS011;22335;49.800;8.596;2024-03-06T14:37:30;32.72;;;29.17;;
36303;SDS011;22335;49.800;8.596;2024-03-06T14:44:13;30.40;;;27.30;;
36303;SDS011;22335;49.800;8.596;2024-03-06T14:50:58;30.50;;;27.35;;
36303;SDS011;22335;49.800;8.596;2024-03-06T14:57:42;30.17;;;26.77;;
36303;SDS011;22335;49.800;8.596;2024-03-06T15:04:26;30.38;;;27.25;;
36303;SDS011;22335;49.800;8.596;2024-03-06T15:11:10;29.58;;;26.48;;
36303;SDS011;22335;49.800;8.596;2024-03-06T15:17:55;29.65;;;26.55;;
36303;SDS011;22335;49.800;8.596;2024-03-06T15:24:38;29.88;;;26.67;;
36303;SDS011;22335;49.800;8.596;2024-03-06T15:31:23;27.80;;;25.00;;
36303;SDS011;22335;49.800;8.596;2024-03-06T15:38:08;27.60;;;24.75;;
36303;SDS011;22335;49.800;8.596;2024-03-06T15:44:52;29.67;;;26.17;;
36303;SDS011;22335;49.800;8.596;2024-03-06T15:51:38;27.23;;;24.42;;
36303;SDS011;22335;49.800;8.596;2024-03-06T15:58:21;29.60;;;26.48;;
36303;SDS011;22335;49.800;8.596;2024-03-06T16:05:05;28.63;;;25.58;;
36303;SDS011;22335;49.800;8.596;2024-03-06T16:11:51;31.02;;;27.17;;
36303;SDS011;22335;49.800;8.596;2024-03-06T16:18:35;32.15;;;28.40;;
36303;SDS011;22335;49.800;8.596;2024-03-06T16:25:18;30.15;;;26.58;;
36303;SDS011;22335;49.800;8.596;2024-03-06T16:32:04;30.20;;;27.02;;
36303;SDS011;22335;49.800;8.596;2024-03-06T16:38:48;31.45;;;27.92;;
36303;SDS011;22335;49.800;8.596;2024-03-06T16:45:32;30.15;;;26.95;;
36303;SDS011;22335;49.800;8.596;2024-03-06T16:52:16;31.70;;;28.27;;
36303;SDS011;22335;49.800;8.596;2024-03-06T16:59:00;31.27;;;27.08;;
36303;SDS011;22335;49.800;8.596;2024-03-06T17:05:43;30.77;;;27.58;;
36303;SDS011;22335;49.800;8.596;2024-03-06T17:12:28;31.05;;;27.75;;
36303;SDS011;22335;49.800;8.596;2024-03-06T17:19:12;32.17;;;28.80;;
36303;SDS011;22335;49.800;8.596;2024-03-06T17:25:55;30.77;;;27.67;;
36303;SDS011;22335;49.800;8.596;2024-03-06T17:32:41;34.33;;;30.63;;
36303;SDS011;22335;49.800;8.596;2024-03-06T17:39:25;31.35;;;28.25;;
36303;SDS011;22335;49.800;8.596;2024-03-06T17:46:08;32.38;;;29.08;;
36303;SDS011;22335;49.800;8.596;2024-03-06T17:52:53;32.13;;;28.80;;
36303;SDS011;22335;49.800;8.596;2024-03-06T17:59:36;31.67;;;28.38;;
36303;SDS011;22335;49.800;8.596;2024-03-06T18:06:20;33.42;;;29.92;;
36303;SDS011;22335;49.800;8.596;2024-03-06T18:13:05;32.25;;;28.75;;
36303;SDS011;22335;49.800;8.596;2024-03-06T18:19:48;31.55;;;28.27;;
36303;SDS011;22335;49.800;8.596;2024-03-06T18:26:32;31.40;;;28.10;;
36303;SDS011;22335;49.800;8.596;2024-03-06T18:33:17;32.30;;;28.42;;
36303;SDS011;22335;49.800;8.596;2024-03-06T18:40:00;32.95;;;29.58;;
36303;SDS011;22335;49.800;8.596;2024-03-06T18:46:44;33.58;;;30.17;;
36303;SDS011;22335;49.800;8.596;2024-03-06T18:53:30;32.97;;;29.52;;
36303;SDS011;22335;49.800;8.596;2024-03-06T19:00:14;33.92;;;30.27;;
36303;SDS011;22335;49.800;8.596;2024-03-06T19:06:59;34.67;;;30.90;;
36303;SDS011;22335;49.800;8.596;2024-03-06T19:13:44;36.55;;;32.15;;
36303;SDS011;22335;49.800;8.596;2024-03-06T19:20:27;36.55;;;32.65;;
36303;SDS011;22335;49.800;8.596;2024-03-06T19:27:11;37.60;;;33.50;;
36303;SDS011;22335;49.800;8.596;2024-03-06T19:33:56;41.47;;;35.05;;
36303;SDS011;22335;49.800;8.596;2024-03-06T19:40:39;41.67;;;34.65;;
36303;SDS011;22335;49.800;8.596;2024-03-06T19:47:23;42.92;;;35.55;;
36303;SDS011;22335;49.800;8.596;2024-03-06T19:54:08;41.20;;;36.20;;
36303;SDS011;22335;49.800;8.596;2024-03-06T20:00:52;42.40;;;37.33;;
36303;SDS011;22335;49.800;8.596;2024-03-06T20:07:35;42.15;;;37.08;;
36303;SDS011;22335;49.800;8.596;2024-03-06T20:14:21;44.53;;;37.17;;
36303;SDS011;22335;49.800;8.596;2024-03-06T20:21:05;46.88;;;38.05;;
36303;SDS011;22335;49.800;8.596;2024-03-06T20:27:50;43.25;;;37.67;;
36303;SDS011;22335;49.800;8.596;2024-03-06T20:34:35;44.13;;;38.90;;
36303;SDS011;22335;49.800;8.596;2024-03-06T20:41:20;43.47;;;37.60;;
36303;SDS011;22335;49.800;8.596;2024-03-06T20:48:04;49.58;;;39.53;;
36303;SDS011;22335;49.800;8.596;2024-03-06T20:54:50;45.97;;;38.75;;
36303;SDS011;22335;49.800;8.596;2024-03-06T21:01:34;48.63;;;39.58;;
36303;SDS011;22335;49.800;8.596;2024-03-06T21:08:17;43.35;;;38.47;;
36303;SDS011;22335;49.800;8.596;2024-03-06T21:15:02;47.85;;;40.25;;
36303;SDS011;22335;49.800;8.596;2024-03-06T21:21:48;46.97;;;40.05;;
36303;SDS011;22335;49.800;8.596;2024-03-06T21:28:32;45.42;;;39.38;;
36303;SDS011;22335;49.800;8.596;2024-03-06T21:35:17;46.63;;;40.30;;
36303;SDS011;22335;49.800;8.596;2024-03-06T21:42:02;49.08;;;41.78;;
36303;SDS011;22335;49.800;8.596;2024-03-06T21:48:46;49.92;;;41.35;;
36303;SDS011;22335;49.800;8.596;2024-03-06T21:55:32;50.00;;;40.72;;
36303;SDS011;22335;49.800;8.596;2024-03-06T22:02:16;46.38;;;40.85;;
36303;SDS011;22335;49.800;8.596;2024-03-06T22:08:59;46.78;;;39.45;;
36303;SDS011;22335;49.800;8.596;2024-03-06T22:15:44;51.17;;;40.50;;
36303;SDS011;22335;49.800;8.596;2024-03-06T22:22:28;50.28;;;42.33;;
36303;SDS011;22335;49.800;8.596;2024-03-06T22:29:13;45.83;;;40.20;;
36303;SDS011;22335;49.800;8.596;2024-03-06T22:35:59;49.40;;;40.60;;
36303;SDS011;22335;49.800;8.596;2024-03-06T22:42:42;47.38;;;40.70;;
36303;SDS011;22335;49.800;8.596;2024-03-06T22:49:26;51.35;;;40.30;;
36303;SDS011;22335;49.800;8.596;2024-03-06T22:56:11;48.00;;;40.20;;
36303;SDS011;22335;49.800;8.596;2024-03-06T23:02:54;52.05;;;44.17;;
36303;SDS011;22335;49.800;8.596;2024-03-06T23:09:39;51.85;;;41.78;;
36303;SDS011;22335;49.800;8.596;2024-03-06T23:16:23;49.58;;;42.17;;
36303;SDS011;22335;49.800;8.596;2024-03-06T23:23:07;47.67;;;40.70;;
36303;SDS011;22335;49.800;8.596;2024-03-06T23:29:50;46.15;;;39.83;;
36303;SDS011;22335;49.800;8.596;2024-03-06T23:36:35;49.55;;;41.10;;
36303;SDS011;22335;49.800;8.596;2024-03-06T23:43:19;53.80;;;41.97;;
36303;SDS011;22335;49.800;8.596;2024-03-06T23:50:02;49.28;;;41.20;;
36303;SDS011;22335;49.800;8.596;2024-03-06T23:56:48;47.75;;;41.33;;
